createdAt,value
2017-05-29T00:00:16.458Z,57.64
2017-05-29T00:00:57.047Z,57.64
2017-05-29T00:01:37.618Z,57.42
2017-05-29T00:02:18.200Z,58.12
2017-05-29T00:02:58.790Z,58.12
2017-05-29T00:03:39.373Z,58.12
2017-05-29T00:04:19.993Z,58
2017-05-29T00:05:00.563Z,58.12
2017-05-29T00:05:41.146Z,58.12
2017-05-29T00:06:21.752Z,57.93
2017-05-29T00:07:02.332Z,58.22
2017-05-29T00:07:42.952Z,57.81
2017-05-29T00:08:23.538Z,57.71
2017-05-29T00:09:04.143Z,57.81
2017-05-29T00:09:44.810Z,57.84
2017-05-29T00:10:25.395Z,57.81
2017-05-29T00:11:05.994Z,57.71
2017-05-29T00:11:46.576Z,57.9
2017-05-29T00:12:27.164Z,57.62
2017-05-29T00:13:07.748Z,58.19
2017-05-29T00:13:48.356Z,58.29
2017-05-29T00:14:28.954Z,58.58
2017-05-29T00:15:09.547Z,58.39
2017-05-29T00:15:50.144Z,58.29
2017-05-29T00:16:30.726Z,58.39
2017-05-29T00:17:11.315Z,58.29
2017-05-29T00:17:51.899Z,58.58
2017-05-29T00:18:32.476Z,58.48
2017-05-29T00:19:13.055Z,58.87
2017-05-29T00:19:53.649Z,58.77
2017-05-29T00:20:34.234Z,58.77
2017-05-29T00:21:14.828Z,58.87
2017-05-29T00:21:55.418Z,58.97
2017-05-29T00:22:35.986Z,58.87
2017-05-29T00:23:16.573Z,58.68
2017-05-29T00:23:57.181Z,58.97
2017-05-29T00:24:37.767Z,58.97
2017-05-29T00:25:18.350Z,58.87
2017-05-29T00:25:58.926Z,58.77
2017-05-29T00:26:39.515Z,59.06
2017-05-29T00:27:20.122Z,59.16
2017-05-29T00:28:00.719Z,58.68
2017-05-29T00:28:41.315Z,58.58
2017-05-29T00:29:21.902Z,58.58
2017-05-29T00:30:02.504Z,58.58
2017-05-29T00:30:43.095Z,58.58
2017-05-29T00:31:23.671Z,58.97
2017-05-29T00:32:04.256Z,59.25
2017-05-29T00:32:44.855Z,59.25
2017-05-29T00:33:25.449Z,59.35
2017-05-29T00:34:06.029Z,59.45
2017-05-29T00:34:46.618Z,59.45
2017-05-29T00:35:27.213Z,59.25
2017-05-29T00:36:07.801Z,59.55
2017-05-29T00:36:48.391Z,59.35
2017-05-29T00:37:28.997Z,59.25
2017-05-29T00:38:09.578Z,59.25
2017-05-29T00:38:50.175Z,59.25
2017-05-29T00:39:30.766Z,58.77
2017-05-29T00:40:11.362Z,58.97
2017-05-29T00:40:51.952Z,58.97
2017-05-29T00:41:32.568Z,59.25
2017-05-29T00:42:13.149Z,59.06
2017-05-29T00:42:53.731Z,59.45
2017-05-29T00:43:34.326Z,59.45
2017-05-29T00:44:14.906Z,59.25
2017-05-29T00:44:55.506Z,59.35
2017-05-29T00:45:36.091Z,59.64
2017-05-29T00:46:16.689Z,59.25
2017-05-29T00:46:57.277Z,59.25
2017-05-29T00:47:37.900Z,59.35
2017-05-29T00:48:18.487Z,59.55
2017-05-29T00:48:59.076Z,59.35
2017-05-29T00:49:39.671Z,59.74
2017-05-29T00:50:20.259Z,59.93
2017-05-29T00:51:00.894Z,59.55
2017-05-29T00:51:41.477Z,59.83
2017-05-29T00:52:22.063Z,59.55
2017-05-29T00:53:02.651Z,59.35
2017-05-29T00:53:43.238Z,59.25
2017-05-29T00:54:23.821Z,59.35
2017-05-29T00:55:04.599Z,59.35
2017-05-29T00:55:45.175Z,59.16
2017-05-29T00:56:25.753Z,59.83
2017-05-29T00:57:06.349Z,59.74
2017-05-29T00:57:46.936Z,60.22
2017-05-29T00:58:27.518Z,59.71
2017-05-29T00:59:08.112Z,59.25
2017-05-29T00:59:48.698Z,59.32
2017-05-29T01:00:29.296Z,59.64
2017-05-29T01:01:09.947Z,60.19
2017-05-29T01:01:50.530Z,59.06
2017-05-29T01:02:31.123Z,59.45
2017-05-29T01:03:11.719Z,59.83
2017-05-29T01:03:52.331Z,59.71
2017-05-29T01:04:32.918Z,59.25
2017-05-29T01:05:13.499Z,59.93
2017-05-29T01:05:54.081Z,59.64
2017-05-29T01:06:34.684Z,59.45
2017-05-29T01:07:15.267Z,59.64
2017-05-29T01:07:55.848Z,59.16
2017-05-29T01:08:36.434Z,59.35
2017-05-29T01:09:17.013Z,59.25
2017-05-29T01:09:57.608Z,59.06
2017-05-29T01:10:38.193Z,59.55
2017-05-29T01:11:18.798Z,59.25
2017-05-29T01:11:59.381Z,58.58
2017-05-29T01:12:39.979Z,58.77
2017-05-29T01:13:20.602Z,58.97
2017-05-29T01:14:01.190Z,58.97
2017-05-29T01:14:41.776Z,58.58
2017-05-29T01:15:22.352Z,58.68
2017-05-29T01:16:02.927Z,58.68
2017-05-29T01:16:43.542Z,58.87
2017-05-29T01:17:24.125Z,58.68
2017-05-29T01:18:04.725Z,58.68
2017-05-29T01:18:45.304Z,58.77
2017-05-29T01:19:25.889Z,58.58
2017-05-29T01:20:06.488Z,58.68
2017-05-29T01:20:47.072Z,58.87
2017-05-29T01:21:27.659Z,58.77
2017-05-29T01:22:08.262Z,58.77
2017-05-29T01:22:48.849Z,58.68
2017-05-29T01:23:29.444Z,58.75
2017-05-29T01:24:10.059Z,58.58
2017-05-29T01:24:50.649Z,58.58
2017-05-29T01:25:31.225Z,58.68
2017-05-29T01:26:11.820Z,58.87
2017-05-29T01:26:52.411Z,58.58
2017-05-29T01:27:33.015Z,58.97
2017-05-29T01:28:13.586Z,58.87
2017-05-29T01:28:54.154Z,58.87
2017-05-29T01:29:34.833Z,58.77
2017-05-29T01:30:15.441Z,58.87
2017-05-29T01:30:56.026Z,59.25
2017-05-29T01:31:36.625Z,58.87
2017-05-29T01:32:17.194Z,58.77
2017-05-29T01:32:57.877Z,59.06
2017-05-29T01:33:38.451Z,59.25
2017-05-29T01:34:19.039Z,58.68
2017-05-29T01:34:59.631Z,58.58
2017-05-29T01:35:40.237Z,58.58
2017-05-29T01:36:20.945Z,58.97
2017-05-29T01:37:01.553Z,58.97
2017-05-29T01:37:42.129Z,59.55
2017-05-29T01:38:22.775Z,59.35
2017-05-29T01:39:03.355Z,59.64
2017-05-29T01:39:43.959Z,59.23
2017-05-29T01:40:24.550Z,59.55
2017-05-29T01:41:05.129Z,59.83
2017-05-29T01:41:45.767Z,59.35
2017-05-29T01:42:26.375Z,59.93
2017-05-29T01:43:06.990Z,59.93
2017-05-29T01:43:47.589Z,59.93
2017-05-29T01:44:28.157Z,59.64
2017-05-29T01:45:08.743Z,59.61
2017-05-29T01:45:49.334Z,59.64
2017-05-29T01:46:29.972Z,59.74
2017-05-29T01:47:10.559Z,59.64
2017-05-29T01:47:51.205Z,59.61
2017-05-29T01:48:31.785Z,59.71
2017-05-29T01:49:12.361Z,59.64
2017-05-29T01:49:52.956Z,59.9
2017-05-29T01:50:33.627Z,59.9
2017-05-29T01:51:14.223Z,59.61
2017-05-29T01:51:54.839Z,59.32
2017-05-29T01:52:35.421Z,59.71
2017-05-29T01:53:16.090Z,59.71
2017-05-29T01:53:56.698Z,59.8
2017-05-29T01:54:37.277Z,60
2017-05-29T01:55:17.870Z,59.71
2017-05-29T01:55:58.491Z,59.8
2017-05-29T01:56:39.085Z,59.9
2017-05-29T01:57:19.646Z,59.42
2017-05-29T01:58:00.280Z,59.8
2017-05-29T01:58:40.849Z,59.61
2017-05-29T01:59:21.439Z,59.9
2017-05-29T02:00:02.057Z,59.61
2017-05-29T02:00:42.714Z,59.23
2017-05-29T02:01:23.309Z,59.42
2017-05-29T02:02:03.894Z,59.23
2017-05-29T02:02:44.478Z,59.42
2017-05-29T02:03:25.080Z,59.52
2017-05-29T02:04:05.660Z,59.32
2017-05-29T02:04:46.239Z,59.13
2017-05-29T02:05:26.828Z,59.03
2017-05-29T02:06:07.409Z,58.84
2017-05-29T02:06:47.994Z,58.65
2017-05-29T02:07:28.610Z,58.65
2017-05-29T02:08:09.179Z,58.55
2017-05-29T02:08:49.841Z,58.36
2017-05-29T02:09:30.419Z,58.17
2017-05-29T02:10:10.993Z,57.87
2017-05-29T02:10:51.581Z,58.17
2017-05-29T02:11:32.198Z,57.87
2017-05-29T02:12:15.668Z,57.59
2017-05-29T02:12:56.309Z,57.68
2017-05-29T02:13:36.907Z,57.59
2017-05-29T02:14:17.504Z,57.49
2017-05-29T02:14:58.094Z,57.59
2017-05-29T02:15:38.689Z,57.2
2017-05-29T02:16:19.276Z,57.01
2017-05-29T02:16:59.876Z,57.01
2017-05-29T02:17:40.494Z,56.52
2017-05-29T02:18:21.204Z,56.81
2017-05-29T02:19:01.766Z,57.01
2017-05-29T02:19:42.370Z,56.81
2017-05-29T02:20:22.986Z,56.91
2017-05-29T02:21:03.613Z,56.72
2017-05-29T02:21:44.208Z,56.33
2017-05-29T02:22:24.826Z,56.52
2017-05-29T02:23:05.458Z,56.52
2017-05-29T02:23:46.057Z,57.01
2017-05-29T02:24:26.697Z,56.72
2017-05-29T02:25:07.253Z,56.24
2017-05-29T02:25:47.930Z,56.33
2017-05-29T02:26:28.526Z,56.43
2017-05-29T02:27:09.104Z,56.24
2017-05-29T02:27:49.748Z,56.52
2017-05-29T02:28:30.304Z,56.21
2017-05-29T02:29:10.898Z,56.49
2017-05-29T02:29:51.495Z,56.49
2017-05-29T02:30:32.076Z,56.04
2017-05-29T02:31:12.666Z,55.73
2017-05-29T02:31:53.268Z,55.63
2017-05-29T02:32:33.854Z,55.63
2017-05-29T02:33:14.464Z,55.44
2017-05-29T02:33:55.060Z,55.63
2017-05-29T02:34:35.691Z,55.05
2017-05-29T02:35:16.344Z,54.76
2017-05-29T02:35:56.953Z,55.15
2017-05-29T02:36:37.545Z,55.24
2017-05-29T02:37:18.243Z,55.34
2017-05-29T02:37:58.874Z,55.82
2017-05-29T02:38:39.467Z,55.92
2017-05-29T02:39:20.078Z,55.54
2017-05-29T02:40:00.683Z,55.54
2017-05-29T02:40:41.335Z,55.54
2017-05-29T02:41:21.924Z,55.73
2017-05-29T02:42:02.558Z,55.63
2017-05-29T02:42:43.170Z,56.21
2017-05-29T02:43:23.763Z,56.3
2017-05-29T02:44:04.363Z,56.11
2017-05-29T02:44:44.952Z,56.4
2017-05-29T02:45:25.579Z,56.4
2017-05-29T02:46:06.283Z,56.21
2017-05-29T02:46:46.875Z,56.49
2017-05-29T02:47:27.465Z,56.3
2017-05-29T02:48:08.084Z,55.92
2017-05-29T02:48:48.713Z,56.01
2017-05-29T02:49:29.365Z,56.21
2017-05-29T02:50:09.957Z,56.21
2017-05-29T02:50:50.570Z,56.49
2017-05-29T02:51:31.180Z,56.01
2017-05-29T02:52:11.765Z,55.73
2017-05-29T02:52:52.413Z,55.82
2017-05-29T02:53:33.015Z,55.54
2017-05-29T02:54:13.647Z,56.11
2017-05-29T02:54:54.277Z,56.01
2017-05-29T02:55:34.869Z,56.4
2017-05-29T02:56:15.469Z,55.54
2017-05-29T02:56:56.056Z,55.63
2017-05-29T02:57:36.655Z,56.11
2017-05-29T02:58:17.254Z,56.21
2017-05-29T02:58:57.866Z,56.11
2017-05-29T02:59:38.561Z,55.82
2017-05-29T03:00:19.181Z,56.49
2017-05-29T03:00:59.809Z,56.49
2017-05-29T03:01:40.400Z,56.88
2017-05-29T03:02:21.011Z,57.07
2017-05-29T03:03:01.595Z,56.79
2017-05-29T03:03:42.237Z,56.79
2017-05-29T03:04:22.911Z,56.49
2017-05-29T03:05:03.460Z,56.59
2017-05-29T03:05:44.063Z,56.88
2017-05-29T03:06:24.751Z,56.49
2017-05-29T03:07:05.379Z,56.59
2017-05-29T03:07:46.049Z,56.79
2017-05-29T03:08:26.642Z,56.4
2017-05-29T03:09:07.234Z,57.17
2017-05-29T03:09:47.837Z,57.27
2017-05-29T03:10:28.564Z,57.27
2017-05-29T03:11:09.200Z,57.27
2017-05-29T03:11:49.783Z,57.17
2017-05-29T03:12:30.394Z,56.88
2017-05-29T03:13:10.987Z,56.98
2017-05-29T03:13:51.577Z,57.17
2017-05-29T03:14:32.186Z,57.37
2017-05-29T03:15:12.838Z,57.56
2017-05-29T03:15:53.434Z,57.37
2017-05-29T03:16:34.034Z,57.56
2017-05-29T03:17:14.666Z,57.56
2017-05-29T03:17:55.282Z,57.65
2017-05-29T03:18:35.879Z,58.04
2017-05-29T03:19:16.497Z,57.65
2017-05-29T03:19:57.088Z,57.17
2017-05-29T03:20:37.685Z,57.56
2017-05-29T03:21:18.292Z,57.56
2017-05-29T03:21:58.866Z,57.37
2017-05-29T03:22:39.485Z,57.56
2017-05-29T03:23:20.107Z,57.56
2017-05-29T03:24:00.688Z,57.75
2017-05-29T03:24:41.321Z,57.37
2017-05-29T03:25:21.908Z,57.17
2017-05-29T03:26:02.548Z,57.75
2017-05-29T03:26:43.097Z,57.46
2017-05-29T03:27:23.693Z,57.46
2017-05-29T03:28:04.330Z,57.65
2017-05-29T03:28:44.956Z,57.56
2017-05-29T03:29:25.689Z,57.37
2017-05-29T03:30:06.247Z,56.49
2017-05-29T03:30:46.974Z,56.69
2017-05-29T03:31:27.613Z,56.98
2017-05-29T03:32:08.237Z,56.88
2017-05-29T03:32:48.841Z,56.88
2017-05-29T03:33:29.432Z,57.56
2017-05-29T03:34:10.030Z,57.56
2017-05-29T03:34:50.619Z,57.65
2017-05-29T03:35:31.214Z,57.37
2017-05-29T03:36:11.835Z,57.14
2017-05-29T03:36:52.427Z,56.79
2017-05-29T03:37:33.027Z,57.17
2017-05-29T03:38:13.630Z,57.46
2017-05-29T03:38:54.224Z,56.79
2017-05-29T03:39:34.841Z,56.21
2017-05-29T03:40:15.437Z,56.11
2017-05-29T03:40:56.043Z,56.01
2017-05-29T03:41:36.650Z,56.85
2017-05-29T03:42:17.256Z,56.76
2017-05-29T03:42:57.863Z,56.79
2017-05-29T03:43:38.453Z,56.76
2017-05-29T03:44:19.049Z,56.95
2017-05-29T03:44:59.649Z,57.37
2017-05-29T03:45:40.265Z,57.34
2017-05-29T03:46:20.905Z,57.75
2017-05-29T03:47:01.654Z,57.65
2017-05-29T03:47:42.314Z,57.46
2017-05-29T03:48:22.914Z,57.17
2017-05-29T03:49:03.549Z,57.07
2017-05-29T03:49:44.113Z,56.3
2017-05-29T03:50:24.715Z,56.76
2017-05-29T03:51:05.328Z,57.27
2017-05-29T03:51:45.911Z,57.37
2017-05-29T03:52:26.508Z,57.65
2017-05-29T03:53:07.111Z,57.27
2017-05-29T03:53:47.688Z,56.3
2017-05-29T03:54:28.257Z,56.4
2017-05-29T03:55:08.839Z,56.79
2017-05-29T03:55:49.429Z,57.27
2017-05-29T03:56:30.018Z,57.53
2017-05-29T03:57:10.619Z,57.72
2017-05-29T03:57:51.204Z,57.17
2017-05-29T03:58:31.794Z,57.37
2017-05-29T03:59:12.379Z,57.85
2017-05-29T03:59:52.974Z,57.65
2017-05-29T04:00:33.550Z,57.56
2017-05-29T04:01:14.145Z,57.53
2017-05-29T04:01:54.740Z,56.79
2017-05-29T04:02:35.334Z,57.27
2017-05-29T04:03:15.935Z,57.46
2017-05-29T04:03:56.527Z,56.49
2017-05-29T04:04:37.116Z,56.85
2017-05-29T04:05:17.699Z,56.79
2017-05-29T04:05:58.282Z,56.79
2017-05-29T04:06:38.862Z,56.49
2017-05-29T04:07:19.444Z,57.27
2017-05-29T04:08:00.027Z,57.37
2017-05-29T04:08:40.612Z,56.69
2017-05-29T04:09:21.209Z,56.21
2017-05-29T04:10:01.820Z,55.24
2017-05-29T04:10:42.413Z,54.86
2017-05-29T04:11:23.012Z,55.05
2017-05-29T04:12:04.842Z,55.63
2017-05-29T04:13:00.950Z,56.49
2017-05-29T04:13:41.521Z,56.4
2017-05-29T04:14:22.128Z,56.01
2017-05-29T04:15:02.738Z,56.21
2017-05-29T04:15:43.325Z,56.11
2017-05-29T04:16:23.937Z,55.92
2017-05-29T04:17:04.519Z,56.21
2017-05-29T04:17:45.183Z,57.07
2017-05-29T04:18:25.788Z,57.27
2017-05-29T04:19:06.361Z,57.17
2017-05-29T04:19:46.967Z,57.65
2017-05-29T04:20:27.545Z,57.94
2017-05-29T04:21:08.143Z,56.69
2017-05-29T04:21:48.759Z,56.21
2017-05-29T04:22:29.349Z,56.69
2017-05-29T04:23:09.927Z,56.79
2017-05-29T04:23:50.524Z,56.49
2017-05-29T04:24:31.154Z,56.88
2017-05-29T04:25:11.798Z,57.17
2017-05-29T04:25:52.342Z,56.69
2017-05-29T04:26:32.919Z,56.11
2017-05-29T04:27:13.507Z,56.21
2017-05-29T04:27:54.101Z,56.69
2017-05-29T04:28:34.690Z,57.17
2017-05-29T04:29:15.280Z,56.21
2017-05-29T04:29:55.876Z,55.92
2017-05-29T04:30:36.456Z,56.21
2017-05-29T04:31:17.034Z,56.69
2017-05-29T04:31:57.620Z,56.49
2017-05-29T04:32:38.200Z,55.82
2017-05-29T04:33:18.786Z,55.82
2017-05-29T04:33:59.427Z,55.63
2017-05-29T04:34:40.028Z,56.21
2017-05-29T04:35:20.616Z,56.11
2017-05-29T04:36:01.192Z,56.11
2017-05-29T04:36:41.784Z,56.21
2017-05-29T04:37:22.368Z,56.11
2017-05-29T04:38:02.951Z,55.63
2017-05-29T04:38:43.545Z,55.92
2017-05-29T04:39:24.117Z,55.76
2017-05-29T04:40:04.697Z,56.01
2017-05-29T04:40:45.289Z,55.54
2017-05-29T04:41:25.871Z,55.36
2017-05-29T04:42:06.458Z,54.98
2017-05-29T04:42:47.079Z,55.36
2017-05-29T04:43:27.671Z,55.34
2017-05-29T04:44:08.252Z,54.88
2017-05-29T04:44:48.837Z,54.6
2017-05-29T04:45:29.422Z,54.69
2017-05-29T04:46:10.022Z,54.31
2017-05-29T04:46:50.631Z,54.6
2017-05-29T04:47:31.233Z,54.88
2017-05-29T04:48:11.820Z,54.88
2017-05-29T04:48:52.434Z,53.92
2017-05-29T04:49:33.023Z,52.86
2017-05-29T04:50:13.634Z,52.37
2017-05-29T04:50:54.225Z,52.28
2017-05-29T04:51:34.811Z,52.47
2017-05-29T04:52:15.394Z,52.67
2017-05-29T04:52:55.983Z,53.34
2017-05-29T04:53:36.563Z,53.73
2017-05-29T04:54:17.142Z,54.11
2017-05-29T04:54:57.727Z,54.79
2017-05-29T04:55:38.319Z,55.08
2017-05-29T04:56:18.916Z,54.98
2017-05-29T04:56:59.500Z,55.66
2017-05-29T04:57:40.080Z,55.94
2017-05-29T04:58:20.684Z,55.56
2017-05-29T04:59:01.286Z,55.27
2017-05-29T04:59:41.899Z,55.08
2017-05-29T05:00:22.509Z,54.98
2017-05-29T05:01:03.116Z,54.88
2017-05-29T05:01:43.718Z,54.98
2017-05-29T05:02:24.411Z,54.79
2017-05-29T05:03:04.945Z,54.69
2017-05-29T05:03:45.535Z,54.02
2017-05-29T05:04:26.163Z,53.63
2017-05-29T05:05:06.751Z,53.44
2017-05-29T05:05:47.365Z,52.57
2017-05-29T05:06:27.961Z,52.57
2017-05-29T05:07:08.571Z,52.69
2017-05-29T05:07:49.181Z,52.47
2017-05-29T05:08:29.790Z,52.37
2017-05-29T05:09:10.366Z,52.4
2017-05-29T05:09:50.969Z,52.4
2017-05-29T05:10:31.558Z,52.4
2017-05-29T05:11:12.161Z,51.63
2017-05-29T05:11:52.789Z,51.63
2017-05-29T05:12:33.380Z,52.4
2017-05-29T05:13:13.980Z,52.4
2017-05-29T05:13:54.570Z,51.63
2017-05-29T05:14:35.181Z,51.44
2017-05-29T05:15:15.805Z,51.73
2017-05-29T05:15:56.394Z,52.5
2017-05-29T05:16:36.974Z,51.82
2017-05-29T05:17:17.586Z,49.99
2017-05-29T05:17:58.188Z,49.63
2017-05-29T05:18:38.775Z,49.73
2017-05-29T05:19:19.356Z,49.92
2017-05-29T05:19:59.938Z,50.69
2017-05-29T05:20:40.515Z,49.24
2017-05-29T05:21:21.140Z,48.66
2017-05-29T05:22:01.741Z,48.57
2017-05-29T05:22:42.340Z,47.7
2017-05-29T05:23:22.937Z,47.02
2017-05-29T05:24:03.537Z,48.08
2017-05-29T05:24:44.135Z,47.7
2017-05-29T05:25:24.722Z,47.89
2017-05-29T05:26:05.317Z,47.6
2017-05-29T05:26:45.911Z,47.89
2017-05-29T05:27:26.521Z,48.57
2017-05-29T05:28:07.138Z,47.72
2017-05-29T05:28:47.739Z,47.99
2017-05-29T05:29:28.329Z,47.81
2017-05-29T05:30:08.955Z,48.11
2017-05-29T05:30:49.534Z,46.56
2017-05-29T05:31:30.140Z,45.01
2017-05-29T05:32:10.716Z,44.63
2017-05-29T05:32:51.290Z,43.47
2017-05-29T05:33:31.893Z,43.76
2017-05-29T05:34:12.498Z,43.2
2017-05-29T05:34:53.082Z,43.59
2017-05-29T05:35:33.662Z,44.46
2017-05-29T05:36:14.245Z,44.46
2017-05-29T05:36:54.843Z,44.26
2017-05-29T05:37:35.424Z,44.29
2017-05-29T05:38:16.032Z,44.38
2017-05-29T05:38:56.643Z,43.13
2017-05-29T05:39:37.231Z,42.35
2017-05-29T05:40:17.821Z,43.03
2017-05-29T05:40:58.409Z,42.55
2017-05-29T05:41:39.000Z,40.81
2017-05-29T05:42:19.603Z,40.05
2017-05-29T05:43:00.195Z,40.44
2017-05-29T05:43:40.782Z,41.21
2017-05-29T05:44:21.384Z,40.83
2017-05-29T05:45:02.015Z,41.31
2017-05-29T05:45:42.634Z,42.08
2017-05-29T05:46:23.219Z,42.47
2017-05-29T05:47:03.803Z,42.78
2017-05-29T05:47:44.382Z,43.17
2017-05-29T05:48:24.971Z,43.46
2017-05-29T05:49:05.553Z,43.55
2017-05-29T05:49:46.166Z,41.33
2017-05-29T05:50:26.759Z,42.32
2017-05-29T05:51:07.349Z,41.74
2017-05-29T05:51:47.961Z,41.16
2017-05-29T05:52:28.556Z,40.48
2017-05-29T05:53:09.166Z,39.9
2017-05-29T05:53:49.763Z,40.38
2017-05-29T05:54:30.351Z,40.01
2017-05-29T05:55:10.945Z,39.9
2017-05-29T05:55:51.538Z,40.01
2017-05-29T05:56:32.128Z,39.82
2017-05-29T05:57:12.765Z,40.31
2017-05-29T05:57:53.395Z,39.62
2017-05-29T05:58:34.000Z,40.4
2017-05-29T05:59:14.587Z,38.66
2017-05-29T05:59:55.178Z,39.06
2017-05-29T06:00:35.795Z,39.36
2017-05-29T06:01:16.387Z,37.71
2017-05-29T06:01:56.988Z,37.9
2017-05-29T06:02:37.576Z,36.54
2017-05-29T06:03:18.177Z,35.28
2017-05-29T06:03:58.896Z,35.28
2017-05-29T06:04:39.501Z,35.09
2017-05-29T06:05:20.113Z,35.48
2017-05-29T06:06:00.697Z,36.83
2017-05-29T06:06:41.305Z,38.09
2017-05-29T06:07:21.970Z,37.81
2017-05-29T06:08:02.584Z,37.51
2017-05-29T06:08:43.222Z,37.41
2017-05-29T06:09:23.802Z,37.13
2017-05-29T06:10:04.485Z,36.36
2017-05-29T06:10:45.102Z,36.66
2017-05-29T06:11:25.837Z,37.43
2017-05-29T06:12:06.534Z,37.34
2017-05-29T06:12:47.241Z,36.66
2017-05-29T06:13:27.879Z,36.18
2017-05-29T06:14:08.555Z,36.97
2017-05-29T06:14:49.133Z,37.07
2017-05-29T06:15:29.732Z,36.97
2017-05-29T06:16:10.468Z,36.38
2017-05-29T06:16:51.062Z,35.49
2017-05-29T06:17:31.716Z,35.4
2017-05-29T06:18:12.336Z,35.98
2017-05-29T06:18:52.936Z,36.58
2017-05-29T06:19:33.552Z,36.18
2017-05-29T06:20:14.154Z,35.78
2017-05-29T06:20:54.743Z,36.27
2017-05-29T06:21:35.345Z,36.76
2017-05-29T06:22:15.965Z,36.27
2017-05-29T06:22:56.587Z,36.46
2017-05-29T06:23:37.189Z,37.07
2017-05-29T06:24:17.767Z,37.35
2017-05-29T06:24:58.355Z,36.38
2017-05-29T06:25:38.940Z,36.48
2017-05-29T06:26:19.534Z,34.16
2017-05-29T06:27:00.151Z,34.23
2017-05-29T06:27:40.792Z,34.81
2017-05-29T06:28:21.383Z,35.49
2017-05-29T06:29:01.986Z,36.46
2017-05-29T06:29:42.581Z,37.82
2017-05-29T06:30:23.211Z,37.84
2017-05-29T06:31:03.819Z,36.19
2017-05-29T06:31:44.416Z,36.38
2017-05-29T06:32:25.020Z,35.03
2017-05-29T06:33:05.722Z,36.38
2017-05-29T06:33:46.355Z,36.77
2017-05-29T06:34:26.944Z,36.79
2017-05-29T06:35:07.597Z,37.76
2017-05-29T06:35:48.213Z,37.37
2017-05-29T06:36:28.811Z,36.52
2017-05-29T06:37:09.397Z,36.32
2017-05-29T06:37:50.004Z,35.16
2017-05-29T06:38:30.618Z,34.48
2017-05-29T06:39:11.229Z,33.9
2017-05-29T06:39:51.820Z,34.38
2017-05-29T06:40:32.427Z,35.57
2017-05-29T06:41:13.037Z,36.24
2017-05-29T06:41:53.636Z,36.63
2017-05-29T06:42:34.247Z,33.81
2017-05-29T06:43:14.886Z,33.53
2017-05-29T06:43:55.506Z,34.88
2017-05-29T06:44:36.100Z,34.11
2017-05-29T06:45:16.690Z,35.76
2017-05-29T06:45:57.283Z,36.15
2017-05-29T06:46:37.941Z,36.75
2017-05-29T06:47:18.502Z,36.26
2017-05-29T06:47:59.099Z,36.16
2017-05-29T06:48:39.727Z,36.07
2017-05-29T06:49:20.324Z,36.55
2017-05-29T06:50:00.916Z,35.68
2017-05-29T06:50:41.505Z,35.19
2017-05-29T06:51:22.121Z,33.44
2017-05-29T06:52:02.752Z,34.12
2017-05-29T06:52:43.346Z,33.93
2017-05-29T06:53:23.970Z,34.9
2017-05-29T06:54:04.571Z,34.52
2017-05-29T06:54:45.196Z,33.93
2017-05-29T06:55:25.795Z,34.12
2017-05-29T06:56:06.397Z,34.8
2017-05-29T06:56:47.001Z,34.8
2017-05-29T06:57:27.665Z,33.44
2017-05-29T06:58:08.284Z,33.83
2017-05-29T06:58:48.890Z,34.42
2017-05-29T06:59:29.560Z,32.78
2017-05-29T07:00:10.147Z,31.79
2017-05-29T07:00:50.738Z,32.47
2017-05-29T07:01:31.333Z,31.7
2017-05-29T07:02:11.953Z,31.88
2017-05-29T07:02:52.542Z,33.83
2017-05-29T07:03:33.132Z,34.22
2017-05-29T07:04:13.730Z,34.72
2017-05-29T07:04:54.340Z,34.61
2017-05-29T07:05:34.965Z,35.21
2017-05-29T07:06:15.557Z,35.89
2017-05-29T07:06:56.146Z,34.14
2017-05-29T07:07:36.737Z,31.9
2017-05-29T07:08:17.342Z,31.61
2017-05-29T07:08:57.942Z,32.97
2017-05-29T07:09:38.543Z,34.61
2017-05-29T07:10:19.140Z,34.33
2017-05-29T07:10:59.745Z,33.75
2017-05-29T07:11:40.332Z,32.97
2017-05-29T07:12:20.936Z,34.24
2017-05-29T07:13:01.546Z,33.85
2017-05-29T07:13:42.152Z,32.39
2017-05-29T07:14:22.772Z,32.1
2017-05-29T07:15:03.454Z,32.39
2017-05-29T07:15:44.042Z,33.44
2017-05-29T07:16:24.662Z,33.95
2017-05-29T07:17:05.258Z,34.43
2017-05-29T07:17:45.855Z,34.63
2017-05-29T07:18:26.445Z,34.24
2017-05-29T07:19:07.037Z,33.95
2017-05-29T07:19:47.623Z,33.36
2017-05-29T07:20:28.237Z,33.95
2017-05-29T07:21:08.822Z,33.75
2017-05-29T07:21:49.434Z,34.05
2017-05-29T07:22:30.035Z,33.65
2017-05-29T07:23:10.636Z,32.2
2017-05-29T07:23:51.238Z,34.24
2017-05-29T07:24:31.874Z,34.24
2017-05-29T07:25:12.458Z,34.72
2017-05-29T07:25:53.063Z,35.11
2017-05-29T07:26:33.682Z,34.24
2017-05-29T07:27:14.273Z,34.43
2017-05-29T07:27:54.878Z,35.11
2017-05-29T07:28:35.466Z,35.13
2017-05-29T07:29:16.055Z,35.13
2017-05-29T07:29:56.664Z,35.71
2017-05-29T07:30:37.260Z,34.55
2017-05-29T07:31:17.846Z,34.55
2017-05-29T07:31:58.446Z,34.94
2017-05-29T07:32:39.049Z,34.64
2017-05-29T07:33:19.645Z,34.35
2017-05-29T07:34:00.242Z,34.35
2017-05-29T07:34:40.832Z,33.96
2017-05-29T07:35:21.421Z,35.52
2017-05-29T07:36:02.063Z,35.71
2017-05-29T07:36:42.651Z,35.61
2017-05-29T07:37:23.285Z,35.52
2017-05-29T07:38:03.883Z,35.61
2017-05-29T07:38:44.494Z,34.76
2017-05-29T07:39:25.088Z,34.37
2017-05-29T07:40:05.677Z,34.95
2017-05-29T07:40:46.282Z,33.98
2017-05-29T07:41:26.874Z,35.25
2017-05-29T07:42:07.480Z,35.25
2017-05-29T07:42:48.083Z,33.98
2017-05-29T07:43:28.736Z,33.29
2017-05-29T07:44:09.340Z,33.78
2017-05-29T07:44:49.970Z,34.47
2017-05-29T07:45:30.576Z,34.17
2017-05-29T07:46:11.165Z,34.56
2017-05-29T07:46:51.760Z,35.05
2017-05-29T07:47:32.361Z,35.15
2017-05-29T07:48:12.955Z,35.73
2017-05-29T07:48:53.549Z,35.53
2017-05-29T07:49:34.144Z,35.15
2017-05-29T07:50:14.733Z,35.63
2017-05-29T07:50:55.354Z,35.44
2017-05-29T07:51:35.947Z,35.15
2017-05-29T07:52:16.547Z,33.39
2017-05-29T07:52:57.148Z,35.15
2017-05-29T07:53:37.749Z,35.93
2017-05-29T07:54:18.358Z,35.93
2017-05-29T07:54:58.961Z,33.69
2017-05-29T07:55:39.554Z,34.47
2017-05-29T07:56:20.140Z,35.53
2017-05-29T07:57:00.736Z,36.51
2017-05-29T07:57:41.328Z,35.83
2017-05-29T07:58:21.921Z,36.53
2017-05-29T07:59:02.528Z,36.61
2017-05-29T07:59:43.127Z,35.46
2017-05-29T08:00:23.750Z,35.26
2017-05-29T08:01:04.344Z,35.75
2017-05-29T08:01:44.941Z,36.04
2017-05-29T08:02:25.538Z,34.88
2017-05-29T08:03:06.138Z,32.92
2017-05-29T08:03:46.735Z,33.22
2017-05-29T08:04:27.339Z,34.37
2017-05-29T08:05:07.946Z,34.68
2017-05-29T08:05:48.546Z,35.55
2017-05-29T08:06:29.153Z,35.63
2017-05-29T08:07:09.915Z,35.16
2017-05-29T08:07:50.415Z,34.29
2017-05-29T08:08:31.002Z,33.41
2017-05-29T08:09:11.611Z,34.88
2017-05-29T08:09:52.216Z,34
2017-05-29T08:10:32.804Z,35.26
2017-05-29T08:11:13.410Z,34.08
2017-05-29T08:11:54.038Z,35.15
2017-05-29T08:12:34.641Z,34.76
2017-05-29T08:13:15.246Z,34.76
2017-05-29T08:13:55.828Z,33.9
2017-05-29T08:14:36.419Z,33.98
2017-05-29T08:15:17.012Z,34.56
2017-05-29T08:15:57.593Z,35.05
2017-05-29T08:16:38.188Z,35.53
2017-05-29T08:17:18.797Z,36.71
2017-05-29T08:17:59.451Z,36.12
2017-05-29T08:18:39.979Z,35.25
2017-05-29T08:19:20.571Z,37.1
2017-05-29T08:20:01.160Z,37.77
2017-05-29T08:20:41.739Z,38.26
2017-05-29T08:21:22.327Z,37.1
2017-05-29T08:22:02.923Z,37.68
2017-05-29T08:22:43.505Z,36.71
2017-05-29T08:23:24.112Z,38.26
2017-05-29T08:24:04.689Z,37.58
2017-05-29T08:24:45.290Z,37.87
2017-05-29T08:25:25.882Z,37.58
2017-05-29T08:26:06.484Z,36.71
2017-05-29T08:26:47.080Z,36.8
2017-05-29T08:27:27.715Z,36.02
2017-05-29T08:28:08.304Z,36.71
2017-05-29T08:28:48.918Z,36.8
2017-05-29T08:29:29.509Z,37.58
2017-05-29T08:30:10.099Z,37.29
2017-05-29T08:30:50.703Z,37.77
2017-05-29T08:31:31.305Z,37
2017-05-29T08:32:12.607Z,37.77
2017-05-29T08:32:53.397Z,38.95
2017-05-29T08:33:34.002Z,38.26
2017-05-29T08:34:14.622Z,38.07
2017-05-29T08:34:55.204Z,38.75
2017-05-29T08:35:39.079Z,39.72
2017-05-29T08:36:21.091Z,38.26
2017-05-29T08:37:01.799Z,38.26
2017-05-29T08:37:45.649Z,39.14
2017-05-29T08:38:26.236Z,37.97
2017-05-29T08:39:09.722Z,37.68
2017-05-29T08:39:50.362Z,39.34
2017-05-29T08:40:30.958Z,40.11
2017-05-29T08:41:11.910Z,39.43
2017-05-29T08:41:52.504Z,40.11
2017-05-29T08:42:33.137Z,37.68
2017-05-29T08:43:13.732Z,39.43
2017-05-29T08:43:54.333Z,39.14
2017-05-29T08:44:34.921Z,38.17